Buttonwillow, CA (93206)

11:04 PM PST on March 03, 2015 (GMT -0800)
Rosedale | Change Station
CLOSE
Current Station
Personal Weather Station
Location: Bakersfield, CA
Elevation: 358 ft
Nearby Weather Stations

Elev 358 ft 35.39 °N, 119.18 °W | Updated 2 seconds ago

Mostly Cloudy
Mostly Cloudy
46.3 °F
Feels Like 46 °F
N
0.0
Wind Variable Wind from SSW
Gusts 0.0 mph

Today
High -- | Low -- °F
--% Chance of Precip.
Yesterday
High -- | Low -- °F
Precip. -- in
6:25 AM 5:54 PM
Waxing Gibbous, 98% visible
Pressure 30.01 in
Visibility 10.0 miles
Clouds Overcast 5000 ft
Windchill 46 °F
Dew Point 42 °F
Humidity 85%
Rainfall 0.00 in
Snow Depth Not available.
UV 0 out of 12
Pollen 8.60 out of 12
Air Quality Not available.
Flu Activity Not available.
METAR KBFL 040654Z AUTO 13005KT 10SM OVC050 12/07 A3001 RMK AO2 SLP160 T01220067

More Conditions Fewer Conditions

Pressure 30.01 in
Visibility 10.0 miles
Clouds Overcast 5000 ft
Windchill 46 °F
Dew Point 42 °F
Humidity 85%
Rainfall 0.00 in
Snow Depth Not available.
UV 0 out of 12
Pollen 8.60 out of 12
Air Quality Not available.
Flu Activity Not available.
METAR KBFL 040654Z AUTO 13005KT 10SM OVC050 12/07 A3001 RMK AO2 SLP160 T01220067

More Conditions Fewer Conditions

10-Day Weather Forecast

Almanac

Astronomy

Mar. 03, 2015 Rise Set
Actual Time
Civil Twilight
Nautical Twilight
Astronomical Twilight
Moon
Length of Visible Light
Length of Day
Tomorrow will be .
, % of the Moon is Illuminated

Today's Extremes

State Highs State Lows

Community

WunderPhotos

Upload Photos

1,802,402 photos uploaded!

WunderBlogs® & News

Nearby

Air Quality

  Air Quality AQ Index Pollutant
Not available.

Snow Depth

Station Depth Elevation

Earthquake Activity

City Distance Mag. Time & Date
Minimum magnitude displayed is 2.5.

Coastal Water Temperatures

Place Temperature

Nearby Weather Stations